sensor_id;sensor_type;location;lat;lon;timestamp;temperature;humidity
12604;DHT22;6367;52.508;13.284;2023-08-20T00:00:25;28.80;99.90
12604;DHT22;6367;52.508;13.284;2023-08-20T00:02:59;28.80;99.90
12604;DHT22;6367;52.508;13.284;2023-08-20T00:05:29;28.80;99.90
12604;DHT22;6367;52.508;13.284;2023-08-20T00:07:54;28.70;99.90
12604;DHT22;6367;52.508;13.284;2023-08-20T00:10:20;28.70;99.90
12604;DHT22;6367;52.508;13.284;2023-08-20T00:12:46;28.70;99.90
12604;DHT22;6367;52.508;13.284;2023-08-20T00:15:11;28.70;99.90
12604;DHT22;6367;52.508;13.284;2023-08-20T00:17:39;28.70;99.90
12604;DHT22;6367;52.508;13.284;2023-08-20T00:20:06;28.70;99.90
12604;DHT22;6367;52.508;13.284;2023-08-20T00:22:36;28.70;99.90
12604;DHT22;6367;52.508;13.284;2023-08-20T00:25:02;28.70;99.90
12604;DHT22;6367;52.508;13.284;2023-08-20T00:27:29;28.70;99.90
12604;DHT22;6367;52.508;13.284;2023-08-20T00:29:55;28.60;99.90
12604;DHT22;6367;52.508;13.284;2023-08-20T00:32:20;28.60;99.90
12604;DHT22;6367;52.508;13.284;2023-08-20T00:34:46;28.60;99.90
12604;DHT22;6367;52.508;13.284;2023-08-20T00:37:12;28.60;99.90
12604;DHT22;6367;52.508;13.284;2023-08-20T00:39:38;28.60;99.90
12604;DHT22;6367;52.508;13.284;2023-08-20T00:42:04;28.60;99.90
12604;DHT22;6367;52.508;13.284;2023-08-20T00:44:30;28.60;99.90
12604;DHT22;6367;52.508;13.284;2023-08-20T00:46:56;28.60;99.90
12604;DHT22;6367;52.508;13.284;2023-08-20T00:49:22;28.60;99.90
12604;DHT22;6367;52.508;13.284;2023-08-20T00:51:48;28.60;99.90
12604;DHT22;6367;52.508;13.284;2023-08-20T00:54:14;28.60;99.90
12604;DHT22;6367;52.508;13.284;2023-08-20T00:56:40;28.60;99.90
12604;DHT22;6367;52.508;13.284;2023-08-20T00:59:06;28.60;99.90
12604;DHT22;6367;52.508;13.284;2023-08-20T01:01:31;28.50;99.90
12604;DHT22;6367;52.508;13.284;2023-08-20T01:03:57;28.60;99.90
12604;DHT22;6367;52.508;13.284;2023-08-20T01:06:36;28.60;99.90
12604;DHT22;6367;52.508;13.284;2023-08-20T01:09:15;28.50;99.90
12604;DHT22;6367;52.508;13.284;2023-08-20T01:11:56;28.50;99.90
12604;DHT22;6367;52.508;13.284;2023-08-20T01:14:23;28.50;99.90
12604;DHT22;6367;52.508;13.284;2023-08-20T01:16:48;27.80;99.90
12604;DHT22;6367;52.508;13.284;2023-08-20T01:19:19;28.40;99.90
12604;DHT22;6367;52.508;13.284;2023-08-20T01:29:43;28.30;99.90
12604;DHT22;6367;52.508;13.284;2023-08-20T01:32:09;28.30;99.90
12604;DHT22;6367;52.508;13.284;2023-08-20T01:34:36;28.20;99.90
12604;DHT22;6367;52.508;13.284;2023-08-20T01:37:02;28.20;99.90
12604;DHT22;6367;52.508;13.284;2023-08-20T01:39:27;28.20;99.90
12604;DHT22;6367;52.508;13.284;2023-08-20T01:41:53;28.20;99.90
12604;DHT22;6367;52.508;13.284;2023-08-20T01:44:18;28.20;99.90
12604;DHT22;6367;52.508;13.284;2023-08-20T01:46:44;28.20;99.90
12604;DHT22;6367;52.508;13.284;2023-08-20T01:49:10;28.20;99.90
12604;DHT22;6367;52.508;13.284;2023-08-20T01:51:35;28.10;99.90
12604;DHT22;6367;52.508;13.284;2023-08-20T01:54:02;28.10;99.90
12604;DHT22;6367;52.508;13.284;2023-08-20T01:56:27;28.10;99.90
12604;DHT22;6367;52.508;13.284;2023-08-20T01:58:53;28.10;99.90
12604;DHT22;6367;52.508;13.284;2023-08-20T02:01:19;28.00;99.90
12604;DHT22;6367;52.508;13.284;2023-08-20T02:03:44;28.00;99.90
12604;DHT22;6367;52.508;13.284;2023-08-20T02:06:10;28.00;99.90
12604;DHT22;6367;52.508;13.284;2023-08-20T02:08:35;28.00;99.90
12604;DHT22;6367;52.508;13.284;2023-08-20T02:11:02;28.00;99.90
12604;DHT22;6367;52.508;13.284;2023-08-20T02:13:29;28.00;99.90
12604;DHT22;6367;52.508;13.284;2023-08-20T02:16:01;27.90;99.90
12604;DHT22;6367;52.508;13.284;2023-08-20T02:18:28;27.90;99.90
12604;DHT22;6367;52.508;13.284;2023-08-20T02:20:53;27.90;99.90
12604;DHT22;6367;52.508;13.284;2023-08-20T02:23:19;27.80;99.90
12604;DHT22;6367;52.508;13.284;2023-08-20T02:25:44;27.80;99.90
12604;DHT22;6367;52.508;13.284;2023-08-20T02:28:10;27.80;99.90
12604;DHT22;6367;52.508;13.284;2023-08-20T02:30:43;27.70;99.90
12604;DHT22;6367;52.508;13.284;2023-08-20T02:33:10;27.70;99.90
12604;DHT22;6367;52.508;13.284;2023-08-20T02:35:39;27.60;99.90
12604;DHT22;6367;52.508;13.284;2023-08-20T02:38:05;27.60;99.90
12604;DHT22;6367;52.508;13.284;2023-08-20T02:40:31;27.60;99.90
12604;DHT22;6367;52.508;13.284;2023-08-20T02:42:57;27.60;99.90
12604;DHT22;6367;52.508;13.284;2023-08-20T02:45:22;27.60;99.90
12604;DHT22;6367;52.508;13.284;2023-08-20T02:47:49;27.50;99.90
12604;DHT22;6367;52.508;13.284;2023-08-20T02:50:15;27.50;99.90
12604;DHT22;6367;52.508;13.284;2023-08-20T02:52:42;27.50;99.90
12604;DHT22;6367;52.508;13.284;2023-08-20T02:55:08;27.40;99.90
12604;DHT22;6367;52.508;13.284;2023-08-20T02:57:34;27.40;99.90
12604;DHT22;6367;52.508;13.284;2023-08-20T02:59:59;27.40;99.90
12604;DHT22;6367;52.508;13.284;2023-08-20T03:02:25;27.30;99.90
12604;DHT22;6367;52.508;13.284;2023-08-20T03:04:51;27.40;99.90
12604;DHT22;6367;52.508;13.284;2023-08-20T03:07:16;27.30;99.90
12604;DHT22;6367;52.508;13.284;2023-08-20T03:09:42;27.30;99.90
12604;DHT22;6367;52.508;13.284;2023-08-20T03:12:08;27.30;99.90
12604;DHT22;6367;52.508;13.284;2023-08-20T03:14:33;27.20;99.90
12604;DHT22;6367;52.508;13.284;2023-08-20T03:16:59;27.10;99.90
12604;DHT22;6367;52.508;13.284;2023-08-20T03:19:25;27.10;99.90
12604;DHT22;6367;52.508;13.284;2023-08-20T03:21:50;27.10;99.90
12604;DHT22;6367;52.508;13.284;2023-08-20T03:24:16;27.10;99.90
12604;DHT22;6367;52.508;13.284;2023-08-20T03:26:41;27.00;99.90
12604;DHT22;6367;52.508;13.284;2023-08-20T03:29:07;27.00;99.90
12604;DHT22;6367;52.508;13.284;2023-08-20T03:31:33;27.00;99.90
12604;DHT22;6367;52.508;13.284;2023-08-20T03:33:58;26.90;99.90
12604;DHT22;6367;52.508;13.284;2023-08-20T03:36:24;26.90;99.90
12604;DHT22;6367;52.508;13.284;2023-08-20T03:38:49;26.90;99.90
12604;DHT22;6367;52.508;13.284;2023-08-20T03:41:15;26.90;99.90
12604;DHT22;6367;52.508;13.284;2023-08-20T03:43:41;26.80;99.90
12604;DHT22;6367;52.508;13.284;2023-08-20T03:46:06;26.90;99.90
12604;DHT22;6367;52.508;13.284;2023-08-20T03:48:32;26.80;99.90
12604;DHT22;6367;52.508;13.284;2023-08-20T03:50:57;26.90;99.90
12604;DHT22;6367;52.508;13.284;2023-08-20T03:53:23;26.90;99.90
12604;DHT22;6367;52.508;13.284;2023-08-20T03:55:49;26.80;99.90
12604;DHT22;6367;52.508;13.284;2023-08-20T03:58:15;26.70;99.90
12604;DHT22;6367;52.508;13.284;2023-08-20T04:00:41;26.60;99.90
12604;DHT22;6367;52.508;13.284;2023-08-20T04:03:06;26.60;99.90
12604;DHT22;6367;52.508;13.284;2023-08-20T04:05:36;26.60;99.90
12604;DHT22;6367;52.508;13.284;2023-08-20T04:08:03;26.60;99.90
12604;DHT22;6367;52.508;13.284;2023-08-20T04:10:29;26.60;99.90
12604;DHT22;6367;52.508;13.284;2023-08-20T04:12:54;26.60;99.90
12604;DHT22;6367;52.508;13.284;2023-08-20T04:15:20;26.60;99.90
12604;DHT22;6367;52.508;13.284;2023-08-20T04:17:45;26.60;99.90
12604;DHT22;6367;52.508;13.284;2023-08-20T04:20:11;26.50;99.90
12604;DHT22;6367;52.508;13.284;2023-08-20T04:22:37;26.50;99.90
12604;DHT22;6367;52.508;13.284;2023-08-20T04:25:03;26.40;99.90
12604;DHT22;6367;52.508;13.284;2023-08-20T04:27:29;26.40;99.90
12604;DHT22;6367;52.508;13.284;2023-08-20T04:29:56;26.40;99.90
12604;DHT22;6367;52.508;13.284;2023-08-20T04:32:21;26.40;99.90
12604;DHT22;6367;52.508;13.284;2023-08-20T04:34:47;26.50;99.90
12604;DHT22;6367;52.508;13.284;2023-08-20T04:37:15;26.40;99.90
12604;DHT22;6367;52.508;13.284;2023-08-20T04:39:40;26.40;99.90
12604;DHT22;6367;52.508;13.284;2023-08-20T04:42:06;26.50;99.90
12604;DHT22;6367;52.508;13.284;2023-08-20T04:44:32;26.50;99.90
12604;DHT22;6367;52.508;13.284;2023-08-20T04:46:59;26.50;99.90
12604;DHT22;6367;52.508;13.284;2023-08-20T04:49:25;26.50;99.90
12604;DHT22;6367;52.508;13.284;2023-08-20T04:51:53;26.50;99.90
12604;DHT22;6367;52.508;13.284;2023-08-20T04:54:19;26.50;99.90
12604;DHT22;6367;52.508;13.284;2023-08-20T04:56:45;26.40;99.90
12604;DHT22;6367;52.508;13.284;2023-08-20T04:59:11;26.40;99.90
12604;DHT22;6367;52.508;13.284;2023-08-20T05:01:38;26.40;99.90
12604;DHT22;6367;52.508;13.284;2023-08-20T05:04:04;26.40;99.90
12604;DHT22;6367;52.508;13.284;2023-08-20T05:06:29;26.40;99.90
12604;DHT22;6367;52.508;13.284;2023-08-20T05:08:55;26.40;99.90
12604;DHT22;6367;52.508;13.284;2023-08-20T05:11:20;26.40;99.90
12604;DHT22;6367;52.508;13.284;2023-08-20T05:13:47;26.40;99.90
12604;DHT22;6367;52.508;13.284;2023-08-20T05:16:25;26.40;99.90
12604;DHT22;6367;52.508;13.284;2023-08-20T05:18:51;26.40;99.90
12604;DHT22;6367;52.508;13.284;2023-08-20T05:21:17;26.40;99.90
12604;DHT22;6367;52.508;13.284;2023-08-20T05:23:42;26.50;99.90
12604;DHT22;6367;52.508;13.284;2023-08-20T05:26:08;26.50;99.90
12604;DHT22;6367;52.508;13.284;2023-08-20T05:28:34;26.50;99.90
12604;DHT22;6367;52.508;13.284;2023-08-20T05:31:00;25.80;99.90
12604;DHT22;6367;52.508;13.284;2023-08-20T05:33:25;26.50;99.90
12604;DHT22;6367;52.508;13.284;2023-08-20T05:35:51;26.50;99.90
12604;DHT22;6367;52.508;13.284;2023-08-20T05:38:17;26.40;99.90
12604;DHT22;6367;52.508;13.284;2023-08-20T05:40:43;26.40;99.90
12604;DHT22;6367;52.508;13.284;2023-08-20T05:43:13;26.40;99.90
12604;DHT22;6367;52.508;13.284;2023-08-20T05:45:39;26.40;99.90
12604;DHT22;6367;52.508;13.284;2023-08-20T05:48:05;26.40;99.90
12604;DHT22;6367;52.508;13.284;2023-08-20T05:50:31;26.40;99.90
12604;DHT22;6367;52.508;13.284;2023-08-20T05:52:56;26.50;99.90
12604;DHT22;6367;52.508;13.284;2023-08-20T05:55:22;26.50;99.90
12604;DHT22;6367;52.508;13.284;2023-08-20T05:57:50;26.40;99.90
12604;DHT22;6367;52.508;13.284;2023-08-20T06:00:16;26.40;99.90
12604;DHT22;6367;52.508;13.284;2023-08-20T06:02:43;26.40;99.90
12604;DHT22;6367;52.508;13.284;2023-08-20T06:05:12;26.50;99.90
12604;DHT22;6367;52.508;13.284;2023-08-20T06:07:38;26.50;99.90
12604;DHT22;6367;52.508;13.284;2023-08-20T06:10:05;26.50;99.90
12604;DHT22;6367;52.508;13.284;2023-08-20T06:12:31;26.50;99.90
12604;DHT22;6367;52.508;13.284;2023-08-20T06:14:59;26.40;99.90
12604;DHT22;6367;52.508;13.284;2023-08-20T06:17:25;26.40;99.90
12604;DHT22;6367;52.508;13.284;2023-08-20T06:19:51;26.40;99.90
12604;DHT22;6367;52.508;13.284;2023-08-20T06:22:16;26.50;99.90
12604;DHT22;6367;52.508;13.284;2023-08-20T06:24:42;26.40;99.90
12604;DHT22;6367;52.508;13.284;2023-08-20T06:27:08;26.40;99.90
12604;DHT22;6367;52.508;13.284;2023-08-20T06:29:33;26.50;99.90
12604;DHT22;6367;52.508;13.284;2023-08-20T06:31:59;26.50;99.90
12604;DHT22;6367;52.508;13.284;2023-08-20T06:34:24;26.40;99.90
12604;DHT22;6367;52.508;13.284;2023-08-20T06:36:50;26.40;99.90
12604;DHT22;6367;52.508;13.284;2023-08-20T06:39:16;26.40;99.90
12604;DHT22;6367;52.508;13.284;2023-08-20T06:41:42;26.40;99.90
12604;DHT22;6367;52.508;13.284;2023-08-20T06:44:08;26.40;99.90
12604;DHT22;6367;52.508;13.284;2023-08-20T06:46:33;26.40;99.90
12604;DHT22;6367;52.508;13.284;2023-08-20T06:48:59;26.40;99.90
12604;DHT22;6367;52.508;13.284;2023-08-20T06:51:25;26.30;99.90
12604;DHT22;6367;52.508;13.284;2023-08-20T06:53:53;26.40;99.90
12604;DHT22;6367;52.508;13.284;2023-08-20T06:56:20;26.40;99.90
12604;DHT22;6367;52.508;13.284;2023-08-20T06:58:50;26.40;99.90
12604;DHT22;6367;52.508;13.284;2023-08-20T07:01:19;26.40;99.90
12604;DHT22;6367;52.508;13.284;2023-08-20T07:03:45;26.20;99.90
12604;DHT22;6367;52.508;13.284;2023-08-20T07:06:16;26.20;99.90
12604;DHT22;6367;52.508;13.284;2023-08-20T07:08:44;26.20;99.90
12604;DHT22;6367;52.508;13.284;2023-08-20T07:11:12;26.10;99.90
12604;DHT22;6367;52.508;13.284;2023-08-20T07:13:38;26.20;99.90
12604;DHT22;6367;52.508;13.284;2023-08-20T07:16:07;26.20;99.90
12604;DHT22;6367;52.508;13.284;2023-08-20T07:18:32;26.30;99.90
12604;DHT22;6367;52.508;13.284;2023-08-20T07:20:58;26.20;99.90
12604;DHT22;6367;52.508;13.284;2023-08-20T07:23:24;26.30;99.90
12604;DHT22;6367;52.508;13.284;2023-08-20T07:25:50;26.40;99.90
12604;DHT22;6367;52.508;13.284;2023-08-20T07:28:18;26.50;99.90
12604;DHT22;6367;52.508;13.284;2023-08-20T07:30:52;26.50;99.90
12604;DHT22;6367;52.508;13.284;2023-08-20T07:33:18;26.50;99.90
12604;DHT22;6367;52.508;13.284;2023-08-20T07:35:43;26.60;99.90
12604;DHT22;6367;52.508;13.284;2023-08-20T07:38:09;26.50;99.90
12604;DHT22;6367;52.508;13.284;2023-08-20T07:40:35;26.60;99.90
12604;DHT22;6367;52.508;13.284;2023-08-20T07:43:01;26.70;99.90
12604;DHT22;6367;52.508;13.284;2023-08-20T07:45:27;26.70;99.90
12604;DHT22;6367;52.508;13.284;2023-08-20T07:47:53;26.80;99.90
12604;DHT22;6367;52.508;13.284;2023-08-20T07:50:18;26.90;99.90
12604;DHT22;6367;52.508;13.284;2023-08-20T07:52:47;26.80;99.90
12604;DHT22;6367;52.508;13.284;2023-08-20T07:55:13;26.90;99.90
12604;DHT22;6367;52.508;13.284;2023-08-20T07:57:38;27.00;99.90
12604;DHT22;6367;52.508;13.284;2023-08-20T08:00:04;27.10;99.90
12604;DHT22;6367;52.508;13.284;2023-08-20T08:02:30;27.20;99.90
12604;DHT22;6367;52.508;13.284;2023-08-20T08:04:56;27.20;99.90
12604;DHT22;6367;52.508;13.284;2023-08-20T08:07:22;27.30;99.90
12604;DHT22;6367;52.508;13.284;2023-08-20T08:09:47;27.40;99.90
12604;DHT22;6367;52.508;13.284;2023-08-20T08:12:13;27.40;99.90
12604;DHT22;6367;52.508;13.284;2023-08-20T08:14:38;27.40;99.90
12604;DHT22;6367;52.508;13.284;2023-08-20T08:17:04;27.40;99.90
12604;DHT22;6367;52.508;13.284;2023-08-20T08:19:30;27.50;99.90
12604;DHT22;6367;52.508;13.284;2023-08-20T08:21:56;27.60;99.90
12604;DHT22;6367;52.508;13.284;2023-08-20T08:24:21;27.70;99.90
12604;DHT22;6367;52.508;13.284;2023-08-20T08:26:47;27.70;99.90
12604;DHT22;6367;52.508;13.284;2023-08-20T08:29:13;27.80;99.90
12604;DHT22;6367;52.508;13.284;2023-08-20T08:31:38;27.80;99.90
12604;DHT22;6367;52.508;13.284;2023-08-20T08:34:04;27.90;99.90
12604;DHT22;6367;52.508;13.284;2023-08-20T08:36:30;28.00;99.90
12604;DHT22;6367;52.508;13.284;2023-08-20T08:38:55;28.10;99.90
12604;DHT22;6367;52.508;13.284;2023-08-20T08:41:22;28.10;99.90
12604;DHT22;6367;52.508;13.284;2023-08-20T08:43:51;28.30;99.90
12604;DHT22;6367;52.508;13.284;2023-08-20T08:46:17;28.40;99.90
12604;DHT22;6367;52.508;13.284;2023-08-20T08:48:45;28.40;99.90
12604;DHT22;6367;52.508;13.284;2023-08-20T08:51:13;28.40;99.90
12604;DHT22;6367;52.508;13.284;2023-08-20T08:53:41;28.40;99.90
12604;DHT22;6367;52.508;13.284;2023-08-20T08:56:07;28.50;99.90
12604;DHT22;6367;52.508;13.284;2023-08-20T08:58:33;28.60;99.90
12604;DHT22;6367;52.508;13.284;2023-08-20T09:00:59;28.70;99.90
12604;DHT22;6367;52.508;13.284;2023-08-20T09:03:25;28.80;99.90
12604;DHT22;6367;52.508;13.284;2023-08-20T09:05:59;28.80;99.90
12604;DHT22;6367;52.508;13.284;2023-08-20T09:08:28;28.90;99.90
12604;DHT22;6367;52.508;13.284;2023-08-20T09:10:55;28.90;99.90
12604;DHT22;6367;52.508;13.284;2023-08-20T09:13:25;28.90;99.90
12604;DHT22;6367;52.508;13.284;2023-08-20T09:15:54;29.00;99.90
12604;DHT22;6367;52.508;13.284;2023-08-20T09:18:20;29.10;99.90
12604;DHT22;6367;52.508;13.284;2023-08-20T09:20:48;29.00;99.90
12604;DHT22;6367;52.508;13.284;2023-08-20T09:23:16;29.10;99.90
12604;DHT22;6367;52.508;13.284;2023-08-20T09:25:43;29.20;99.90
12604;DHT22;6367;52.508;13.284;2023-08-20T09:28:09;29.20;99.90
12604;DHT22;6367;52.508;13.284;2023-08-20T09:30:35;29.30;99.90
12604;DHT22;6367;52.508;13.284;2023-08-20T09:33:06;29.40;99.90
12604;DHT22;6367;52.508;13.284;2023-08-20T09:35:32;29.50;99.90
12604;DHT22;6367;52.508;13.284;2023-08-20T09:38:05;29.50;99.90
12604;DHT22;6367;52.508;13.284;2023-08-20T09:40:31;28.90;99.90
12604;DHT22;6367;52.508;13.284;2023-08-20T09:42:57;29.60;99.90
12604;DHT22;6367;52.508;13.284;2023-08-20T09:45:28;29.70;99.90
12604;DHT22;6367;52.508;13.284;2023-08-20T09:47:58;29.80;99.90
12604;DHT22;6367;52.508;13.284;2023-08-20T09:50:26;29.90;99.80
12604;DHT22;6367;52.508;13.284;2023-08-20T09:53:09;29.90;99.40
12604;DHT22;6367;52.508;13.284;2023-08-20T09:55:38;29.80;99.40
12604;DHT22;6367;52.508;13.284;2023-08-20T09:58:05;29.80;99.30
12604;DHT22;6367;52.508;13.284;2023-08-20T10:00:32;29.80;99.30
12604;DHT22;6367;52.508;13.284;2023-08-20T10:02:58;29.80;99.20
12604;DHT22;6367;52.508;13.284;2023-08-20T10:05:25;29.90;99.00
12604;DHT22;6367;52.508;13.284;2023-08-20T10:07:51;29.90;98.90
12604;DHT22;6367;52.508;13.284;2023-08-20T10:10:17;29.90;98.80
12604;DHT22;6367;52.508;13.284;2023-08-20T10:12:43;30.00;98.70
12604;DHT22;6367;52.508;13.284;2023-08-20T10:15:14;30.00;98.30
12604;DHT22;6367;52.508;13.284;2023-08-20T10:17:45;30.10;98.20
12604;DHT22;6367;52.508;13.284;2023-08-20T10:20:14;30.10;97.90
12604;DHT22;6367;52.508;13.284;2023-08-20T10:22:45;30.10;97.90
12604;DHT22;6367;52.508;13.284;2023-08-20T10:25:24;30.20;97.90
12604;DHT22;6367;52.508;13.284;2023-08-20T10:27:51;30.20;97.80
12604;DHT22;6367;52.508;13.284;2023-08-20T10:30:24;30.30;97.60
12604;DHT22;6367;52.508;13.284;2023-08-20T10:35:18;30.30;97.80
12604;DHT22;6367;52.508;13.284;2023-08-20T10:38:04;30.30;97.80
12604;DHT22;6367;52.508;13.284;2023-08-20T10:40:58;30.20;97.40
12604;DHT22;6367;52.508;13.284;2023-08-20T10:43:37;29.60;97.50
12604;DHT22;6367;52.508;13.284;2023-08-20T10:48:29;30.40;97.50
12604;DHT22;6367;52.508;13.284;2023-08-20T10:50:56;30.30;97.30
12604;DHT22;6367;52.508;13.284;2023-08-20T10:53:22;30.40;97.40
12604;DHT22;6367;52.508;13.284;2023-08-20T10:55:49;30.50;97.40
12604;DHT22;6367;52.508;13.284;2023-08-20T10:58:15;30.40;97.00
12604;DHT22;6367;52.508;13.284;2023-08-20T11:00:42;30.50;97.10
12604;DHT22;6367;52.508;13.284;2023-08-20T11:03:08;30.50;97.00
12604;DHT22;6367;52.508;13.284;2023-08-20T11:05:34;30.60;96.80
12604;DHT22;6367;52.508;13.284;2023-08-20T11:08:00;30.70;96.30
12604;DHT22;6367;52.508;13.284;2023-08-20T11:10:29;30.70;96.00
12604;DHT22;6367;52.508;13.284;2023-08-20T11:12:54;30.70;95.90
12604;DHT22;6367;52.508;13.284;2023-08-20T11:15:20;30.80;95.60
12604;DHT22;6367;52.508;13.284;2023-08-20T11:17:47;30.80;95.50
12604;DHT22;6367;52.508;13.284;2023-08-20T11:20:16;30.80;95.50
12604;DHT22;6367;52.508;13.284;2023-08-20T11:22:42;30.90;95.90
12604;DHT22;6367;52.508;13.284;2023-08-20T11:25:15;31.00;95.70
12604;DHT22;6367;52.508;13.284;2023-08-20T11:27:41;31.00;95.50
12604;DHT22;6367;52.508;13.284;2023-08-20T11:30:08;31.10;95.40
12604;DHT22;6367;52.508;13.284;2023-08-20T11:32:35;31.10;95.20
12604;DHT22;6367;52.508;13.284;2023-08-20T11:35:01;31.20;95.20
12604;DHT22;6367;52.508;13.284;2023-08-20T11:37:27;31.20;94.80
12604;DHT22;6367;52.508;13.284;2023-08-20T11:39:53;31.30;94.70
12604;DHT22;6367;52.508;13.284;2023-08-20T11:42:19;31.40;94.50
12604;DHT22;6367;52.508;13.284;2023-08-20T11:44:46;31.40;94.40
12604;DHT22;6367;52.508;13.284;2023-08-20T11:47:16;31.50;94.20
12604;DHT22;6367;52.508;13.284;2023-08-20T11:49:41;31.60;94.00
12604;DHT22;6367;52.508;13.284;2023-08-20T11:52:07;31.60;93.80
12604;DHT22;6367;52.508;13.284;2023-08-20T11:54:33;31.60;93.60
12604;DHT22;6367;52.508;13.284;2023-08-20T11:57:06;31.80;93.40
12604;DHT22;6367;52.508;13.284;2023-08-20T11:59:33;31.80;93.40
12604;DHT22;6367;52.508;13.284;2023-08-20T12:02:00;31.90;93.10
12604;DHT22;6367;52.508;13.284;2023-08-20T12:04:29;31.90;92.90
12604;DHT22;6367;52.508;13.284;2023-08-20T12:07:05;31.90;93.10
12604;DHT22;6367;52.508;13.284;2023-08-20T12:09:31;32.00;92.60
12604;DHT22;6367;52.508;13.284;2023-08-20T12:11:58;32.00;92.30
12604;DHT22;6367;52.508;13.284;2023-08-20T12:14:24;32.10;92.10
12604;DHT22;6367;52.508;13.284;2023-08-20T12:16:51;32.20;92.00
12604;DHT22;6367;52.508;13.284;2023-08-20T12:19:18;32.30;92.00
12604;DHT22;6367;52.508;13.284;2023-08-20T12:21:44;32.30;91.60
12604;DHT22;6367;52.508;13.284;2023-08-20T12:24:10;32.40;91.60
12604;DHT22;6367;52.508;13.284;2023-08-20T12:26:40;32.40;91.40
12604;DHT22;6367;52.508;13.284;2023-08-20T12:29:06;32.50;90.50
12604;DHT22;6367;52.508;13.284;2023-08-20T12:31:32;32.50;90.20
12604;DHT22;6367;52.508;13.284;2023-08-20T12:34:01;32.50;88.20
12604;DHT22;6367;52.508;13.284;2023-08-20T12:36:28;32.50;87.40
12604;DHT22;6367;52.508;13.284;2023-08-20T12:38:55;32.60;86.60
12604;DHT22;6367;52.508;13.284;2023-08-20T12:41:20;32.60;85.80
12604;DHT22;6367;52.508;13.284;2023-08-20T12:43:46;32.60;85.70
12604;DHT22;6367;52.508;13.284;2023-08-20T12:46:12;32.60;86.50
12604;DHT22;6367;52.508;13.284;2023-08-20T12:48:39;32.50;86.80
12604;DHT22;6367;52.508;13.284;2023-08-20T12:51:05;32.60;86.30
12604;DHT22;6367;52.508;13.284;2023-08-20T12:53:31;32.50;85.20
12604;DHT22;6367;52.508;13.284;2023-08-20T12:55:57;32.60;84.10
12604;DHT22;6367;52.508;13.284;2023-08-20T12:58:22;32.50;83.80
12604;DHT22;6367;52.508;13.284;2023-08-20T13:00:49;32.50;82.10
12604;DHT22;6367;52.508;13.284;2023-08-20T13:03:16;32.50;81.70
12604;DHT22;6367;52.508;13.284;2023-08-20T13:05:42;32.60;80.60
12604;DHT22;6367;52.508;13.284;2023-08-20T13:08:08;32.50;80.30
12604;DHT22;6367;52.508;13.284;2023-08-20T13:10:34;32.40;80.40
12604;DHT22;6367;52.508;13.284;2023-08-20T13:13:01;32.40;80.80
12604;DHT22;6367;52.508;13.284;2023-08-20T13:15:27;32.30;80.90
12604;DHT22;6367;52.508;13.284;2023-08-20T13:17:53;32.30;81.10
12604;DHT22;6367;52.508;13.284;2023-08-20T13:20:19;32.40;81.10
12604;DHT22;6367;52.508;13.284;2023-08-20T13:22:51;32.30;81.90
12604;DHT22;6367;52.508;13.284;2023-08-20T13:25:17;32.30;83.30
12604;DHT22;6367;52.508;13.284;2023-08-20T13:27:43;32.30;83.20
12604;DHT22;6367;52.508;13.284;2023-08-20T13:30:10;32.30;83.30
12604;DHT22;6367;52.508;13.284;2023-08-20T13:32:36;32.20;82.00
12604;DHT22;6367;52.508;13.284;2023-08-20T13:35:02;32.10;83.10
12604;DHT22;6367;52.508;13.284;2023-08-20T13:37:30;32.00;83.20
12604;DHT22;6367;52.508;13.284;2023-08-20T13:40:00;31.90;84.10
12604;DHT22;6367;52.508;13.284;2023-08-20T13:42:26;31.80;85.20
12604;DHT22;6367;52.508;13.284;2023-08-20T13:44:52;31.70;86.00
12604;DHT22;6367;52.508;13.284;2023-08-20T13:47:17;31.50;85.80
12604;DHT22;6367;52.508;13.284;2023-08-20T13:49:43;31.50;86.50
12604;DHT22;6367;52.508;13.284;2023-08-20T13:52:09;31.50;87.30
12604;DHT22;6367;52.508;13.284;2023-08-20T13:54:36;31.40;87.40
12604;DHT22;6367;52.508;13.284;2023-08-20T13:57:02;31.40;87.00
12604;DHT22;6367;52.508;13.284;2023-08-20T13:59:29;31.30;86.50
12604;DHT22;6367;52.508;13.284;2023-08-20T14:01:55;31.30;85.60
12604;DHT22;6367;52.508;13.284;2023-08-20T14:04:20;31.20;84.50
12604;DHT22;6367;52.508;13.284;2023-08-20T14:06:46;31.10;84.30
12604;DHT22;6367;52.508;13.284;2023-08-20T14:09:11;31.10;83.40
12604;DHT22;6367;52.508;13.284;2023-08-20T14:11:37;31.00;82.40
12604;DHT22;6367;52.508;13.284;2023-08-20T14:14:03;31.00;82.70
12604;DHT22;6367;52.508;13.284;2023-08-20T14:16:29;31.00;82.70
12604;DHT22;6367;52.508;13.284;2023-08-20T14:18:54;31.00;82.20
12604;DHT22;6367;52.508;13.284;2023-08-20T14:21:20;31.00;81.90
12604;DHT22;6367;52.508;13.284;2023-08-20T14:23:45;31.00;81.90
12604;DHT22;6367;52.508;13.284;2023-08-20T14:26:11;31.00;82.20
12604;DHT22;6367;52.508;13.284;2023-08-20T14:28:37;31.00;81.20
12604;DHT22;6367;52.508;13.284;2023-08-20T14:31:03;30.90;81.40
12604;DHT22;6367;52.508;13.284;2023-08-20T14:33:30;30.80;81.10
12604;DHT22;6367;52.508;13.284;2023-08-20T14:35:56;30.80;81.10
12604;DHT22;6367;52.508;13.284;2023-08-20T14:38:21;30.80;81.70
12604;DHT22;6367;52.508;13.284;2023-08-20T14:40:47;30.80;81.70
12604;DHT22;6367;52.508;13.284;2023-08-20T14:43:13;30.80;82.10
12604;DHT22;6367;52.508;13.284;2023-08-20T14:45:38;30.80;81.30
12604;DHT22;6367;52.508;13.284;2023-08-20T14:48:04;30.80;81.50
12604;DHT22;6367;52.508;13.284;2023-08-20T14:50:30;30.80;81.00
12604;DHT22;6367;52.508;13.284;2023-08-20T14:52:57;30.80;81.10
12604;DHT22;6367;52.508;13.284;2023-08-20T14:55:22;30.80;80.70
12604;DHT22;6367;52.508;13.284;2023-08-20T14:57:48;30.80;80.50
12604;DHT22;6367;52.508;13.284;2023-08-20T15:00:14;30.80;79.30
12604;DHT22;6367;52.508;13.284;2023-08-20T15:02:44;30.80;79.00
12604;DHT22;6367;52.508;13.284;2023-08-20T15:05:10;30.70;78.80
12604;DHT22;6367;52.508;13.284;2023-08-20T15:07:36;30.70;78.60
12604;DHT22;6367;52.508;13.284;2023-08-20T15:10:04;30.70;79.10
12604;DHT22;6367;52.508;13.284;2023-08-20T15:12:36;30.70;79.60
12604;DHT22;6367;52.508;13.284;2023-08-20T15:15:04;30.70;80.00
12604;DHT22;6367;52.508;13.284;2023-08-20T15:17:30;30.70;79.50
12604;DHT22;6367;52.508;13.284;2023-08-20T15:19:57;30.80;80.10
12604;DHT22;6367;52.508;13.284;2023-08-20T15:22:22;30.80;79.30
12604;DHT22;6367;52.508;13.284;2023-08-20T15:24:48;30.70;78.90
12604;DHT22;6367;52.508;13.284;2023-08-20T15:27:19;30.70;78.80
12604;DHT22;6367;52.508;13.284;2023-08-20T15:29:44;30.80;78.60
12604;DHT22;6367;52.508;13.284;2023-08-20T15:32:10;30.70;78.10
12604;DHT22;6367;52.508;13.284;2023-08-20T15:34:37;30.70;77.90
12604;DHT22;6367;52.508;13.284;2023-08-20T15:37:02;30.70;77.90
12604;DHT22;6367;52.508;13.284;2023-08-20T15:39:31;30.70;78.10